Time;durP1;ratioP1;P1;durP2;ratioP2;P2;SDS_P1;SDS_P2;PMS_P1;PMS_P2;Temp;Humidity;BMP_temperature;BMP_pressure;BME280_temperature;BME280_humidity;BME280_pressure;Samples;Min_cycle;Max_cycle;Signal;HPM_P1;HPM_P2
2022/05/30 14:23:33;;;;;;;;;;;;;;;22.29;nan;98863.50;4206544;23;20154;-91
2022/05/30 14:26:04;;;;;;;;;;;;;;;22.17;nan;98854.31;5038417;28;19972;-91
2022/05/30 14:28:35;;;;;;;;;;;;;;;22.03;nan;98857.84;5029042;28;19987;-91
2022/05/30 14:31:09;;;;;;;;;;;;;;;21.98;nan;98860.25;5010331;28;19972;-92
2022/05/30 14:33:39;;;;;;;;;;;;;;;21.99;nan;98857.41;5032957;28;19968;-91
2022/05/30 14:36:27;;;;;;;;;;;;;;;22.03;nan;98849.81;5016048;28;20033;-91
2022/05/30 14:38:58;;;;;;;;;;;;;;;22.07;nan;98859.13;5033333;28;20104;-92
2022/05/30 14:41:24;;;;;;;;;;;;;;;22.07;nan;98853.78;5029703;28;19972;-91
2022/05/30 14:44:04;;;;;;;;;;;;;;;22.05;nan;98837.91;5012440;28;20167;-92
2022/05/30 14:46:37;;;;;;;;;;;;;;;22.08;nan;98850.09;5033221;28;20392;-91
2022/05/30 14:49:06;;;;;;;;;;;;;;;22.06;nan;98852.13;5016919;28;20540;-91
2022/05/30 14:51:42;;;;;;;;;;;;;;;21.95;nan;98850.75;5031064;28;20658;-91
2022/05/30 14:54:36;;;;;;;;;;;;;;;21.81;nan;98855.13;5022575;28;19978;-92
2022/05/30 14:57:29;;;;;;;;;;;;;;;21.81;nan;98854.31;5030628;28;19972;-90
2022/05/30 14:59:59;;;;;;;;;;;;;;;21.76;nan;98846.03;5020933;28;19991;-90
2022/05/30 15:05:18;;;;;;;;;;;;;;;21.71;nan;98854.63;5031755;28;20027;-91
2022/05/30 15:07:47;;;;;;;;;;;;;;;21.84;nan;98849.41;5030746;28;19976;-93
2022/05/30 15:10:13;;;;;;;;;;;;;;;21.98;nan;98850.41;5012799;28;20608;-88
2022/05/30 15:12:39;;;;;;;;;;;;;;;22.07;nan;98854.59;5027309;28;19975;-89
2022/05/30 15:15:05;;;;;;;;;;;;;;;22.11;nan;98855.06;5023908;28;19979;-87
2022/05/30 15:17:30;;;;;;;;;;;;;;;22.08;nan;98856.25;5007281;28;20011;-88
2022/05/30 15:20:00;;;;;;;;;;;;;;;22.07;nan;98864.50;4999233;28;20477;-87
2022/05/30 15:22:25;;;;;;;;;;;;;;;22.00;nan;98858.22;5022008;28;20002;-86
2022/05/30 15:24:53;;;;;;;;;;;;;;;21.75;nan;98853.22;5027882;28;19971;-88
2022/05/30 15:27:19;;;;;;;;;;;;;;;21.66;nan;98862.38;5021474;28;20015;-89
2022/05/30 15:29:45;;;;;;;;;;;;;;;21.61;nan;98870.13;5018824;28;20014;-89
2022/05/30 15:32:12;;;;;;;;;;;;;;;21.60;nan;98861.28;5020059;28;19968;-89
2022/05/30 15:34:38;;;;;;;;;;;;;;;21.65;nan;98858.03;5010900;28;19986;-88
2022/05/30 15:37:04;;;;;;;;;;;;;;;21.73;nan;98857.09;5017121;28;19992;-89
2022/05/30 15:39:29;;;;;;;;;;;;;;;21.74;nan;98861.41;5019684;28;20075;-88
2022/05/30 15:41:56;;;;;;;;;;;;;;;21.85;nan;98864.47;5015727;28;19971;-89
2022/05/30 15:44:23;;;;;;;;;;;;;;;21.95;nan;98858.78;5018767;28;19971;-90
2022/05/30 15:46:49;;;;;;;;;;;;;;;22.02;nan;98857.03;5026771;28;19975;-89
2022/05/30 15:49:28;;;;;;;;;;;;;;;22.08;nan;98863.47;5017419;28;19972;-91
2022/05/30 15:51:55;;;;;;;;;;;;;;;22.22;nan;98862.59;5001958;28;20025;-90
2022/05/30 15:57:25;;;;;;;;;;;;;;;22.35;nan;98863.75;5027505;28;19978;-92
2022/05/30 15:59:54;;;;;;;;;;;;;;;22.35;nan;98867.25;5008499;28;19995;-89
2022/05/30 16:02:23;;;;;;;;;;;;;;;22.10;nan;98870.28;4991550;28;20062;-89
2022/05/30 16:04:49;;;;;;;;;;;;;;;21.94;nan;98872.38;5035084;28;19975;-87
2022/05/30 16:07:16;;;;;;;;;;;;;;;21.83;nan;98869.16;5044294;28;19968;-89
2022/05/30 16:09:46;;;;;;;;;;;;;;;21.87;nan;98865.09;5043627;28;20601;-87
2022/05/30 16:12:22;;;;;;;;;;;;;;;21.95;nan;98872.16;5027587;28;20654;-89
2022/05/30 16:14:48;;;;;;;;;;;;;;;22.07;nan;98859.97;5040764;28;20480;-89
2022/05/30 16:17:14;;;;;;;;;;;;;;;22.12;nan;98855.91;5047132;28;20016;-90
2022/05/30 16:19:40;;;;;;;;;;;;;;;22.06;nan;98854.78;5042517;28;20037;-90
2022/05/30 16:22:06;;;;;;;;;;;;;;;22.05;nan;98850.47;5030771;28;20432;-90
2022/05/30 16:24:38;;;;;;;;;;;;;;;22.09;nan;98852.59;5048586;28;20484;-89
2022/05/30 16:27:07;;;;;;;;;;;;;;;22.13;nan;98844.19;5043280;28;20200;-89
2022/05/30 16:29:33;;;;;;;;;;;;;;;22.13;nan;98847.66;5044743;28;19976;-90
2022/05/30 16:31:58;;;;;;;;;;;;;;;22.16;nan;98841.94;5045295;28;20010;-89
2022/05/30 16:34:24;;;;;;;;;;;;;;;22.20;nan;98837.09;5047446;28;19982;-89
2022/05/30 16:36:53;;;;;;;;;;;;;;;22.25;nan;98838.16;5046917;28;19972;-90
2022/05/30 16:39:25;;;;;;;;;;;;;;;22.31;nan;98845.41;5044081;28;20750;-90
2022/05/30 16:41:54;;;;;;;;;;;;;;;22.36;nan;98836.81;5043359;28;19979;-90
2022/05/30 16:44:20;;;;;;;;;;;;;;;22.36;nan;98836.81;5048555;28;20409;-90
2022/05/30 16:46:46;;;;;;;;;;;;;;;22.40;nan;98831.91;5053593;28;19974;-92
2022/05/30 16:49:15;;;;;;;;;;;;;;;22.41;nan;98838.91;5046605;28;19967;-91
2022/05/30 16:51:41;;;;;;;;;;;;;;;22.37;nan;98841.13;5046986;28;20092;-89
2022/05/30 16:54:07;;;;;;;;;;;;;;;22.31;nan;98842.75;5049985;28;20297;-91
2022/05/30 16:56:41;;;;;;;;;;;;;;;22.33;nan;98837.19;5033505;28;19979;-90
2022/05/30 16:59:10;;;;;;;;;;;;;;;22.33;nan;98844.38;5038708;28;20427;-90
2022/05/30 17:01:36;;;;;;;;;;;;;;;22.33;nan;98849.72;5052625;28;19971;-90
2022/05/30 17:04:04;;;;;;;;;;;;;;;22.39;nan;98844.47;5054853;28;20020;-89
2022/05/30 17:06:29;;;;;;;;;;;;;;;22.42;nan;98848.59;5027179;28;20605;-90
2022/05/30 17:08:55;;;;;;;;;;;;;;;22.41;nan;98838.91;5051845;28;19982;-90
2022/05/30 17:11:20;;;;;;;;;;;;;;;22.35;nan;98840.50;5056015;28;19975;-90
2022/05/30 17:13:46;;;;;;;;;;;;;;;22.28;nan;98834.28;5054972;28;19995;-90
2022/05/30 17:16:17;;;;;;;;;;;;;;;22.26;nan;98831.78;5053067;28;19999;-90
2022/05/30 17:18:52;;;;;;;;;;;;;;;22.28;nan;98831.59;5071899;28;20045;-89
2022/05/30 17:21:17;;;;;;;;;;;;;;;22.25;nan;98830.13;5067066;28;20026;-89
2022/05/30 17:23:43;;;;;;;;;;;;;;;22.27;nan;98843.31;5056107;28;20132;-91
2022/05/30 17:26:18;;;;;;;;;;;;;;;22.27;nan;98837.97;5063692;28;20062;-92
2022/05/30 17:29:07;;;;;;;;;;;;;;;22.22;nan;98843.88;5061897;28;19998;-90
2022/05/30 17:31:40;;;;;;;;;;;;;;;22.14;nan;98843.97;5050146;28;19967;-90
2022/05/30 17:34:06;;;;;;;;;;;;;;;22.05;nan;98835.25;5065086;28;20712;-91
2022/05/30 17:36:34;;;;;;;;;;;;;;;21.98;nan;98846.88;5055818;28;19975;-90
2022/05/30 17:39:04;;;;;;;;;;;;;;;21.94;nan;98851.78;5055402;28;19971;-92
2022/05/30 17:41:30;;;;;;;;;;;;;;;21.93;nan;98857.31;5056166;28;19986;-91
2022/05/30 17:44:05;;;;;;;;;;;;;;;21.95;nan;98849.94;5055264;28;19967;-92
2022/05/30 17:46:41;;;;;;;;;;;;;;;21.97;nan;98848.75;5061531;28;19970;-91
2022/05/30 17:49:07;;;;;;;;;;;;;;;21.94;nan;98843.78;5070417;28;19959;-91
2022/05/30 17:51:44;;;;;;;;;;;;;;;21.91;nan;98849.50;5064774;28;19982;-91
2022/05/30 17:54:10;;;;;;;;;;;;;;;21.87;nan;98858.91;5068564;28;20499;-90
2022/05/30 17:56:39;;;;;;;;;;;;;;;21.80;nan;98850.00;5070001;28;19978;-91
2022/05/30 17:59:05;;;;;;;;;;;;;;;21.75;nan;98849.72;5034095;28;19968;-91
2022/05/30 18:01:30;;;;;;;;;;;;;;;21.72;nan;98850.13;5060020;28;19971;-91
2022/05/30 18:03:58;;;;;;;;;;;;;;;21.63;nan;98849.41;5063608;28;20536;-90
2022/05/30 18:06:39;;;;;;;;;;;;;;;21.56;nan;98845.81;5061915;28;20132;-91
2022/05/30 18:09:13;;;;;;;;;;;;;;;21.54;nan;98843.31;5056523;28;19990;-91
2022/05/30 18:11:45;;;;;;;;;;;;;;;21.49;nan;98848.38;5059918;28;20038;-90
2022/05/30 18:14:30;;;;;;;;;;;;;;;21.40;nan;98845.00;5055925;28;20425;-91
2022/05/30 18:16:58;;;;;;;;;;;;;;;21.32;nan;98842.38;5058962;28;20029;-90
2022/05/30 18:19:57;;;;;;;;;;;;;;;21.23;nan;98843.50;5057298;28;19991;-91
2022/05/30 18:22:25;;;;;;;;;;;;;;;21.13;nan;98845.63;5059022;28;20085;-90
2022/05/30 18:25:12;;;;;;;;;;;;;;;21.02;nan;98846.91;5046546;28;19990;-92
2022/05/30 18:27:46;;;;;;;;;;;;;;;20.90;nan;98851.88;5040825;28;20023;-92
2022/05/30 18:30:12;;;;;;;;;;;;;;;20.76;nan;98850.81;5063586;28;19990;-92
2022/05/30 18:32:38;;;;;;;;;;;;;;;20.64;nan;98848.78;5061952;28;19971;-92
2022/05/30 18:35:06;;;;;;;;;;;;;;;20.51;nan;98854.69;5066240;28;19971;-93
2022/05/30 18:37:37;;;;;;;;;;;;;;;20.34;nan;98856.69;5068693;28;19972;-91
2022/05/30 18:40:05;;;;;;;;;;;;;;;20.15;nan;98860.66;5050852;28;19996;-90
2022/05/30 18:43:06;;;;;;;;;;;;;;;19.93;nan;98859.63;5066863;28;19967;-92
2022/05/30 18:45:34;;;;;;;;;;;;;;;19.70;nan;98854.25;5006978;28;19990;-91
2022/05/30 18:48:09;;;;;;;;;;;;;;;19.57;nan;98860.09;5058599;28;20130;-91
2022/05/30 18:50:38;;;;;;;;;;;;;;;19.45;nan;98846.34;5048733;28;20022;-91
2022/05/30 18:53:14;;;;;;;;;;;;;;;19.35;nan;98851.03;5062266;28;19994;-92
2022/05/30 18:55:53;;;;;;;;;;;;;;;19.26;nan;98851.25;5065661;28;19971;-91
2022/05/30 18:58:39;;;;;;;;;;;;;;;19.16;nan;98854.13;5064440;28;20002;-91
2022/05/30 19:01:10;;;;;;;;;;;;;;;19.08;nan;98854.13;5004808;28;20052;-92
2022/05/30 19:03:39;;;;;;;;;;;;;;;18.99;nan;98859.47;5067077;28;19972;-92
2022/05/30 19:06:05;;;;;;;;;;;;;;;18.89;nan;98858.00;5065253;28;19968;-92
